sensor_id;sensor_type;location;lat;lon;timestamp;temperature;humidity
23801;DHT22;12081;48.614;10.226;2023-05-07T00:00:26;10.60;99.90
23801;DHT22;12081;48.614;10.226;2023-05-07T00:03:10;10.50;99.90
23801;DHT22;12081;48.614;10.226;2023-05-07T00:05:58;10.50;99.90
23801;DHT22;12081;48.614;10.226;2023-05-07T00:08:42;10.40;99.90
23801;DHT22;12081;48.614;10.226;2023-05-07T00:11:27;10.40;99.90
23801;DHT22;12081;48.614;10.226;2023-05-07T00:14:11;10.40;99.90
23801;DHT22;12081;48.614;10.226;2023-05-07T00:16:56;10.40;99.90
23801;DHT22;12081;48.614;10.226;2023-05-07T00:19:39;10.30;99.90
23801;DHT22;12081;48.614;10.226;2023-05-07T00:22:24;10.30;99.90
23801;DHT22;12081;48.614;10.226;2023-05-07T00:25:08;10.20;99.90
23801;DHT22;12081;48.614;10.226;2023-05-07T00:27:54;10.20;99.90
23801;DHT22;12081;48.614;10.226;2023-05-07T00:30:38;10.20;99.90
23801;DHT22;12081;48.614;10.226;2023-05-07T00:33:22;10.20;99.90
23801;DHT22;12081;48.614;10.226;2023-05-07T00:36:06;10.20;99.90
23801;DHT22;12081;48.614;10.226;2023-05-07T00:38:50;10.10;99.90
23801;DHT22;12081;48.614;10.226;2023-05-07T00:41:35;10.20;99.90
23801;DHT22;12081;48.614;10.226;2023-05-07T00:44:19;10.30;99.90
23801;DHT22;12081;48.614;10.226;2023-05-07T00:47:04;12.70;99.90
23801;DHT22;12081;48.614;10.226;2023-05-07T00:49:49;10.20;99.90
23801;DHT22;12081;48.614;10.226;2023-05-07T00:52:33;10.10;99.90
23801;DHT22;12081;48.614;10.226;2023-05-07T00:55:18;10.10;99.90
23801;DHT22;12081;48.614;10.226;2023-05-07T00:58:02;10.10;99.90
23801;DHT22;12081;48.614;10.226;2023-05-07T01:00:46;10.10;99.90
23801;DHT22;12081;48.614;10.226;2023-05-07T01:03:30;10.10;99.90
23801;DHT22;12081;48.614;10.226;2023-05-07T01:06:15;10.10;99.90
23801;DHT22;12081;48.614;10.226;2023-05-07T01:09:00;10.10;99.90
23801;DHT22;12081;48.614;10.226;2023-05-07T01:11:45;10.00;99.90
23801;DHT22;12081;48.614;10.226;2023-05-07T01:14:31;10.00;99.90
23801;DHT22;12081;48.614;10.226;2023-05-07T01:17:17;10.00;99.90
23801;DHT22;12081;48.614;10.226;2023-05-07T01:20:01;11.80;99.90
23801;DHT22;12081;48.614;10.226;2023-05-07T01:22:45;9.80;99.90
23801;DHT22;12081;48.614;10.226;2023-05-07T01:25:29;9.80;99.90
23801;DHT22;12081;48.614;10.226;2023-05-07T01:28:14;9.70;99.90
23801;DHT22;12081;48.614;10.226;2023-05-07T01:31:02;9.70;99.90
23801;DHT22;12081;48.614;10.226;2023-05-07T01:33:48;9.60;99.90
23801;DHT22;12081;48.614;10.226;2023-05-07T01:36:34;9.70;99.90
23801;DHT22;12081;48.614;10.226;2023-05-07T01:39:24;9.70;99.90
23801;DHT22;12081;48.614;10.226;2023-05-07T01:42:09;9.70;99.90
23801;DHT22;12081;48.614;10.226;2023-05-07T01:44:53;9.70;99.90
23801;DHT22;12081;48.614;10.226;2023-05-07T01:47:37;9.70;99.90
23801;DHT22;12081;48.614;10.226;2023-05-07T01:50:23;9.70;99.90
23801;DHT22;12081;48.614;10.226;2023-05-07T01:53:07;9.70;99.90
23801;DHT22;12081;48.614;10.226;2023-05-07T01:55:51;9.70;99.90
23801;DHT22;12081;48.614;10.226;2023-05-07T01:58:35;9.60;99.90
23801;DHT22;12081;48.614;10.226;2023-05-07T02:01:19;9.60;99.90
23801;DHT22;12081;48.614;10.226;2023-05-07T02:04:03;9.60;99.90
23801;DHT22;12081;48.614;10.226;2023-05-07T02:06:47;9.60;99.90
23801;DHT22;12081;48.614;10.226;2023-05-07T02:09:31;9.50;99.90
23801;DHT22;12081;48.614;10.226;2023-05-07T02:12:15;9.60;99.90
23801;DHT22;12081;48.614;10.226;2023-05-07T02:14:59;9.50;99.90
23801;DHT22;12081;48.614;10.226;2023-05-07T02:18:04;9.50;99.90
23801;DHT22;12081;48.614;10.226;2023-05-07T02:20:48;9.40;99.90
23801;DHT22;12081;48.614;10.226;2023-05-07T02:23:32;9.30;99.90
23801;DHT22;12081;48.614;10.226;2023-05-07T02:26:16;9.30;99.90
23801;DHT22;12081;48.614;10.226;2023-05-07T02:29:00;9.30;99.90
23801;DHT22;12081;48.614;10.226;2023-05-07T02:31:44;9.30;99.90
23801;DHT22;12081;48.614;10.226;2023-05-07T02:34:28;9.20;99.90
23801;DHT22;12081;48.614;10.226;2023-05-07T02:37:12;9.20;99.90
23801;DHT22;12081;48.614;10.226;2023-05-07T02:39:56;9.20;99.90
23801;DHT22;12081;48.614;10.226;2023-05-07T05:19:48;10.20;99.90
23801;DHT22;12081;48.614;10.226;2023-05-07T05:22:32;10.30;99.90
23801;DHT22;12081;48.614;10.226;2023-05-07T05:31:23;10.80;99.90
23801;DHT22;12081;48.614;10.226;2023-05-07T05:34:07;11.00;99.90
23801;DHT22;12081;48.614;10.226;2023-05-07T05:36:52;11.20;99.90
23801;DHT22;12081;48.614;10.226;2023-05-07T05:39:36;11.40;99.90
23801;DHT22;12081;48.614;10.226;2023-05-07T05:42:21;11.50;99.90
23801;DHT22;12081;48.614;10.226;2023-05-07T05:45:05;11.70;99.90
23801;DHT22;12081;48.614;10.226;2023-05-07T05:47:50;11.90;99.90
23801;DHT22;12081;48.614;10.226;2023-05-07T05:50:34;12.00;99.90
23801;DHT22;12081;48.614;10.226;2023-05-07T05:53:20;12.20;99.90
23801;DHT22;12081;48.614;10.226;2023-05-07T06:25:45;14.00;99.90
23801;DHT22;12081;48.614;10.226;2023-05-07T06:28:29;14.30;99.90
23801;DHT22;12081;48.614;10.226;2023-05-07T06:31:19;14.60;99.90
23801;DHT22;12081;48.614;10.226;2023-05-07T06:34:07;15.10;99.90
23801;DHT22;12081;48.614;10.226;2023-05-07T06:36:51;17.70;99.90
23801;DHT22;12081;48.614;10.226;2023-05-07T06:39:35;18.10;99.90
23801;DHT22;12081;48.614;10.226;2023-05-07T06:42:20;14.70;99.90
23801;DHT22;12081;48.614;10.226;2023-05-07T06:45:04;17.50;99.90
23801;DHT22;12081;48.614;10.226;2023-05-07T06:47:49;18.00;99.90
23801;DHT22;12081;48.614;10.226;2023-05-07T06:50:33;18.30;99.90
23801;DHT22;12081;48.614;10.226;2023-05-07T06:53:17;18.60;99.90
23801;DHT22;12081;48.614;10.226;2023-05-07T06:56:01;19.00;99.90
23801;DHT22;12081;48.614;10.226;2023-05-07T06:58:45;19.60;99.90
23801;DHT22;12081;48.614;10.226;2023-05-07T07:01:29;20.30;99.90
23801;DHT22;12081;48.614;10.226;2023-05-07T07:04:13;20.80;99.90
23801;DHT22;12081;48.614;10.226;2023-05-07T07:06:57;21.20;99.90
23801;DHT22;12081;48.614;10.226;2023-05-07T07:09:41;22.00;96.80
23801;DHT22;12081;48.614;10.226;2023-05-07T07:12:25;25.60;95.00
23801;DHT22;12081;48.614;10.226;2023-05-07T07:15:10;23.30;90.90
23801;DHT22;12081;48.614;10.226;2023-05-07T07:17:54;22.80;89.30
23801;DHT22;12081;48.614;10.226;2023-05-07T07:20:38;19.90;86.80
23801;DHT22;12081;48.614;10.226;2023-05-07T07:23:23;23.20;87.80
23801;DHT22;12081;48.614;10.226;2023-05-07T07:26:07;23.50;83.30
23801;DHT22;12081;48.614;10.226;2023-05-07T07:28:51;24.50;83.10
23801;DHT22;12081;48.614;10.226;2023-05-07T07:31:35;24.20;81.20
23801;DHT22;12081;48.614;10.226;2023-05-07T07:34:19;24.50;76.30
23801;DHT22;12081;48.614;10.226;2023-05-07T07:37:03;25.10;74.10
23801;DHT22;12081;48.614;10.226;2023-05-07T07:39:49;25.20;73.10
23801;DHT22;12081;48.614;10.226;2023-05-07T07:42:33;25.80;72.60
23801;DHT22;12081;48.614;10.226;2023-05-07T07:45:17;25.80;68.60
23801;DHT22;12081;48.614;10.226;2023-05-07T07:48:01;25.80;66.10
23801;DHT22;12081;48.614;10.226;2023-05-07T07:50:49;25.40;67.30
23801;DHT22;12081;48.614;10.226;2023-05-07T07:53:33;26.80;71.50
23801;DHT22;12081;48.614;10.226;2023-05-07T07:56:17;25.20;70.20
23801;DHT22;12081;48.614;10.226;2023-05-07T07:59:02;25.90;68.90
23801;DHT22;12081;48.614;10.226;2023-05-07T08:01:46;27.60;69.70
23801;DHT22;12081;48.614;10.226;2023-05-07T08:04:33;26.20;65.10
23801;DHT22;12081;48.614;10.226;2023-05-07T08:07:17;26.20;66.20
23801;DHT22;12081;48.614;10.226;2023-05-07T08:10:04;26.30;64.90
23801;DHT22;12081;48.614;10.226;2023-05-07T08:12:49;26.70;64.80
23801;DHT22;12081;48.614;10.226;2023-05-07T08:15:33;27.10;62.60
23801;DHT22;12081;48.614;10.226;2023-05-07T08:18:17;26.40;64.00
23801;DHT22;12081;48.614;10.226;2023-05-07T08:21:01;26.90;65.00
23801;DHT22;12081;48.614;10.226;2023-05-07T08:23:45;26.20;63.40
23801;DHT22;12081;48.614;10.226;2023-05-07T08:26:29;26.30;64.50
23801;DHT22;12081;48.614;10.226;2023-05-07T08:29:14;26.60;62.80
23801;DHT22;12081;48.614;10.226;2023-05-07T08:31:58;27.00;61.70
23801;DHT22;12081;48.614;10.226;2023-05-07T08:34:42;27.30;61.20
23801;DHT22;12081;48.614;10.226;2023-05-07T08:37:26;27.20;60.80
23801;DHT22;12081;48.614;10.226;2023-05-07T08:40:10;27.60;60.30
23801;DHT22;12081;48.614;10.226;2023-05-07T08:42:56;27.50;59.90
23801;DHT22;12081;48.614;10.226;2023-05-07T09:09:22;30.20;52.40
23801;DHT22;12081;48.614;10.226;2023-05-07T09:12:06;32.10;54.00
23801;DHT22;12081;48.614;10.226;2023-05-07T09:14:50;30.10;53.10
23801;DHT22;12081;48.614;10.226;2023-05-07T09:17:35;29.70;53.10
23801;DHT22;12081;48.614;10.226;2023-05-07T09:20:19;29.20;54.80
23801;DHT22;12081;48.614;10.226;2023-05-07T09:23:03;29.30;54.00
23801;DHT22;12081;48.614;10.226;2023-05-07T09:25:47;30.80;54.70
23801;DHT22;12081;48.614;10.226;2023-05-07T09:28:32;29.90;53.50
23801;DHT22;12081;48.614;10.226;2023-05-07T09:31:16;30.00;53.90
23801;DHT22;12081;48.614;10.226;2023-05-07T09:34:00;29.30;53.10
23801;DHT22;12081;48.614;10.226;2023-05-07T09:36:45;29.20;54.60
23801;DHT22;12081;48.614;10.226;2023-05-07T09:39:39;28.50;54.50
23801;DHT22;12081;48.614;10.226;2023-05-07T09:42:24;27.50;56.30
23801;DHT22;12081;48.614;10.226;2023-05-07T09:45:12;27.00;56.60
23801;DHT22;12081;48.614;10.226;2023-05-07T09:47:57;27.80;57.90
23801;DHT22;12081;48.614;10.226;2023-05-07T09:50:48;27.30;56.30
23801;DHT22;12081;48.614;10.226;2023-05-07T09:53:33;27.40;56.50
23801;DHT22;12081;48.614;10.226;2023-05-07T09:56:17;26.90;56.00
23801;DHT22;12081;48.614;10.226;2023-05-07T09:59:03;26.60;56.40
23801;DHT22;12081;48.614;10.226;2023-05-07T10:01:48;26.70;57.60
23801;DHT22;12081;48.614;10.226;2023-05-07T10:04:33;26.00;56.60
23801;DHT22;12081;48.614;10.226;2023-05-07T10:07:18;26.30;57.40
23801;DHT22;12081;48.614;10.226;2023-05-07T10:10:03;28.20;57.30
23801;DHT22;12081;48.614;10.226;2023-05-07T10:12:47;26.40;56.20
23801;DHT22;12081;48.614;10.226;2023-05-07T10:15:32;27.10;56.20
23801;DHT22;12081;48.614;10.226;2023-05-07T10:18:18;26.40;56.40
23801;DHT22;12081;48.614;10.226;2023-05-07T10:21:18;27.90;55.50
23801;DHT22;12081;48.614;10.226;2023-05-07T10:24:04;27.40;55.80
23801;DHT22;12081;48.614;10.226;2023-05-07T10:26:55;27.60;53.00
23801;DHT22;12081;48.614;10.226;2023-05-07T10:35:26;29.00;52.60
23801;DHT22;12081;48.614;10.226;2023-05-07T10:38:13;29.90;52.90
23801;DHT22;12081;48.614;10.226;2023-05-07T10:40:57;29.90;50.80
23801;DHT22;12081;48.614;10.226;2023-05-07T10:43:44;29.50;48.80
23801;DHT22;12081;48.614;10.226;2023-05-07T10:46:29;30.30;48.80
23801;DHT22;12081;48.614;10.226;2023-05-07T10:49:13;29.40;47.20
23801;DHT22;12081;48.614;10.226;2023-05-07T10:52:27;29.80;48.80
23801;DHT22;12081;48.614;10.226;2023-05-07T11:01:06;30.30;47.70
23801;DHT22;12081;48.614;10.226;2023-05-07T11:04:19;30.20;47.10
23801;DHT22;12081;48.614;10.226;2023-05-07T11:15:57;31.40;45.90
23801;DHT22;12081;48.614;10.226;2023-05-07T11:18:50;31.50;44.60
23801;DHT22;12081;48.614;10.226;2023-05-07T11:21:39;31.40;46.10
23801;DHT22;12081;48.614;10.226;2023-05-07T11:24:24;30.80;46.80
23801;DHT22;12081;48.614;10.226;2023-05-07T11:27:09;31.00;45.90
23801;DHT22;12081;48.614;10.226;2023-05-07T11:29:53;32.20;45.80
23801;DHT22;12081;48.614;10.226;2023-05-07T11:32:37;31.10;45.10
23801;DHT22;12081;48.614;10.226;2023-05-07T11:35:23;30.60;44.80
23801;DHT22;12081;48.614;10.226;2023-05-07T11:38:08;30.70;46.20
23801;DHT22;12081;48.614;10.226;2023-05-07T11:40:54;31.00;45.80
23801;DHT22;12081;48.614;10.226;2023-05-07T11:43:53;31.90;44.10
23801;DHT22;12081;48.614;10.226;2023-05-07T11:46:43;31.20;45.00
23801;DHT22;12081;48.614;10.226;2023-05-07T11:49:27;31.00;43.50
23801;DHT22;12081;48.614;10.226;2023-05-07T11:52:13;30.80;45.60
23801;DHT22;12081;48.614;10.226;2023-05-07T11:54:58;30.90;45.50
23801;DHT22;12081;48.614;10.226;2023-05-07T11:57:44;31.80;44.60
23801;DHT22;12081;48.614;10.226;2023-05-07T12:00:28;31.00;44.30
23801;DHT22;12081;48.614;10.226;2023-05-07T12:03:12;30.90;44.30
23801;DHT22;12081;48.614;10.226;2023-05-07T12:06:14;31.10;44.90
23801;DHT22;12081;48.614;10.226;2023-05-07T12:08:58;30.90;44.80
23801;DHT22;12081;48.614;10.226;2023-05-07T12:11:46;30.50;45.60
23801;DHT22;12081;48.614;10.226;2023-05-07T12:14:30;29.50;46.60
23801;DHT22;12081;48.614;10.226;2023-05-07T12:17:16;29.30;48.00
23801;DHT22;12081;48.614;10.226;2023-05-07T12:20:00;29.20;47.10
23801;DHT22;12081;48.614;10.226;2023-05-07T12:22:45;29.10;47.30
23801;DHT22;12081;48.614;10.226;2023-05-07T12:25:35;29.20;47.80
23801;DHT22;12081;48.614;10.226;2023-05-07T12:28:20;29.80;47.80
23801;DHT22;12081;48.614;10.226;2023-05-07T12:31:04;29.10;47.60
23801;DHT22;12081;48.614;10.226;2023-05-07T12:33:49;29.10;47.20
23801;DHT22;12081;48.614;10.226;2023-05-07T12:36:40;28.80;47.00
23801;DHT22;12081;48.614;10.226;2023-05-07T12:39:24;28.50;49.40
23801;DHT22;12081;48.614;10.226;2023-05-07T12:42:15;28.30;49.30
23801;DHT22;12081;48.614;10.226;2023-05-07T12:44:59;27.70;50.50
23801;DHT22;12081;48.614;10.226;2023-05-07T12:47:44;28.20;51.40
23801;DHT22;12081;48.614;10.226;2023-05-07T12:50:33;28.30;52.40
23801;DHT22;12081;48.614;10.226;2023-05-07T12:53:21;27.00;51.70
23801;DHT22;12081;48.614;10.226;2023-05-07T12:56:05;27.50;52.00
23801;DHT22;12081;48.614;10.226;2023-05-07T12:58:49;26.30;52.40
23801;DHT22;12081;48.614;10.226;2023-05-07T13:01:34;26.50;52.80
23801;DHT22;12081;48.614;10.226;2023-05-07T13:04:18;26.60;51.70
23801;DHT22;12081;48.614;10.226;2023-05-07T13:07:03;26.40;52.70
23801;DHT22;12081;48.614;10.226;2023-05-07T13:09:47;26.20;52.40
23801;DHT22;12081;48.614;10.226;2023-05-07T13:12:32;26.00;52.60
23801;DHT22;12081;48.614;10.226;2023-05-07T13:15:17;25.90;52.80
23801;DHT22;12081;48.614;10.226;2023-05-07T13:18:01;27.10;53.90
23801;DHT22;12081;48.614;10.226;2023-05-07T13:20:46;26.00;52.70
23801;DHT22;12081;48.614;10.226;2023-05-07T13:23:30;26.00;52.40
23801;DHT22;12081;48.614;10.226;2023-05-07T13:26:14;27.10;52.60
23801;DHT22;12081;48.614;10.226;2023-05-07T13:28:58;25.50;52.60
23801;DHT22;12081;48.614;10.226;2023-05-07T13:31:42;26.80;54.40
23801;DHT22;12081;48.614;10.226;2023-05-07T13:34:28;25.30;53.90
23801;DHT22;12081;48.614;10.226;2023-05-07T13:37:12;25.30;54.20
23801;DHT22;12081;48.614;10.226;2023-05-07T13:39:56;25.00;55.10
23801;DHT22;12081;48.614;10.226;2023-05-07T13:42:40;25.00;55.10
23801;DHT22;12081;48.614;10.226;2023-05-07T13:45:25;24.90;54.80
23801;DHT22;12081;48.614;10.226;2023-05-07T13:48:09;24.90;55.20
23801;DHT22;12081;48.614;10.226;2023-05-07T13:50:53;25.00;54.60
23801;DHT22;12081;48.614;10.226;2023-05-07T13:53:37;24.80;55.70
23801;DHT22;12081;48.614;10.226;2023-05-07T13:56:21;26.00;56.50
23801;DHT22;12081;48.614;10.226;2023-05-07T13:59:07;26.60;57.10
23801;DHT22;12081;48.614;10.226;2023-05-07T14:01:51;25.20;56.50
23801;DHT22;12081;48.614;10.226;2023-05-07T14:04:37;25.10;57.60
23801;DHT22;12081;48.614;10.226;2023-05-07T14:07:21;24.60;56.90
23801;DHT22;12081;48.614;10.226;2023-05-07T14:10:06;24.10;56.40
23801;DHT22;12081;48.614;10.226;2023-05-07T14:12:50;23.90;58.00
23801;DHT22;12081;48.614;10.226;2023-05-07T14:15:35;23.80;58.00
23801;DHT22;12081;48.614;10.226;2023-05-07T14:18:20;24.40;58.50
23801;DHT22;12081;48.614;10.226;2023-05-07T14:21:05;23.50;58.00
23801;DHT22;12081;48.614;10.226;2023-05-07T14:23:50;23.70;58.90
23801;DHT22;12081;48.614;10.226;2023-05-07T14:26:35;23.40;59.90
23801;DHT22;12081;48.614;10.226;2023-05-07T14:29:19;24.20;62.00
23801;DHT22;12081;48.614;10.226;2023-05-07T14:32:04;23.10;61.30
23801;DHT22;12081;48.614;10.226;2023-05-07T14:34:48;23.10;62.90
23801;DHT22;12081;48.614;10.226;2023-05-07T14:37:32;23.10;63.60
23801;DHT22;12081;48.614;10.226;2023-05-07T14:40:16;23.10;64.60
23801;DHT22;12081;48.614;10.226;2023-05-07T14:43:00;23.00;64.60
23801;DHT22;12081;48.614;10.226;2023-05-07T14:45:44;23.00;65.10
23801;DHT22;12081;48.614;10.226;2023-05-07T14:48:29;23.00;65.30
23801;DHT22;12081;48.614;10.226;2023-05-07T14:51:13;24.00;67.50
23801;DHT22;12081;48.614;10.226;2023-05-07T14:53:58;24.00;67.80
23801;DHT22;12081;48.614;10.226;2023-05-07T14:56:42;22.70;68.50
23801;DHT22;12081;48.614;10.226;2023-05-07T14:59:26;25.30;70.90
23801;DHT22;12081;48.614;10.226;2023-05-07T15:02:11;24.90;71.50
23801;DHT22;12081;48.614;10.226;2023-05-07T15:04:55;22.30;70.70
23801;DHT22;12081;48.614;10.226;2023-05-07T15:07:40;23.60;72.90
23801;DHT22;12081;48.614;10.226;2023-05-07T15:10:24;22.90;74.10
23801;DHT22;12081;48.614;10.226;2023-05-07T15:13:09;22.00;73.10
23801;DHT22;12081;48.614;10.226;2023-05-07T15:15:54;22.20;74.90
23801;DHT22;12081;48.614;10.226;2023-05-07T15:18:38;21.80;75.00
23801;DHT22;12081;48.614;10.226;2023-05-07T15:21:22;21.70;75.40
23801;DHT22;12081;48.614;10.226;2023-05-07T15:24:07;21.70;75.30
23801;DHT22;12081;48.614;10.226;2023-05-07T15:45:01;21.30;84.10
23801;DHT22;12081;48.614;10.226;2023-05-07T16:15:15;20.30;90.50
23801;DHT22;12081;48.614;10.226;2023-05-07T16:18:25;18.40;90.00
23801;DHT22;12081;48.614;10.226;2023-05-07T16:21:26;21.60;93.90
23801;DHT22;12081;48.614;10.226;2023-05-07T16:24:11;23.60;93.80
23801;DHT22;12081;48.614;10.226;2023-05-07T16:26:55;22.40;94.30
23801;DHT22;12081;48.614;10.226;2023-05-07T16:29:39;22.00;94.40
23801;DHT22;12081;48.614;10.226;2023-05-07T16:32:24;21.80;95.00
23801;DHT22;12081;48.614;10.226;2023-05-07T16:35:11;19.80;95.40
23801;DHT22;12081;48.614;10.226;2023-05-07T16:37:55;22.40;96.30
23801;DHT22;12081;48.614;10.226;2023-05-07T16:41:19;20.90;96.70
23801;DHT22;12081;48.614;10.226;2023-05-07T16:44:57;19.90;97.20
23801;DHT22;12081;48.614;10.226;2023-05-07T17:22:54;16.70;99.90
23801;DHT22;12081;48.614;10.226;2023-05-07T17:25:41;16.40;99.90
23801;DHT22;12081;48.614;10.226;2023-05-07T17:44:38;14.50;99.90
23801;DHT22;12081;48.614;10.226;2023-05-07T17:50:07;14.20;99.90
23801;DHT22;12081;48.614;10.226;2023-05-07T17:55:42;14.00;99.90
23801;DHT22;12081;48.614;10.226;2023-05-07T18:01:11;13.70;99.90
23801;DHT22;12081;48.614;10.226;2023-05-07T18:12:10;13.40;99.90
23801;DHT22;12081;48.614;10.226;2023-05-07T18:20:24;13.40;99.90
23801;DHT22;12081;48.614;10.226;2023-05-07T18:23:08;13.40;99.90
23801;DHT22;12081;48.614;10.226;2023-05-07T18:25:53;13.30;99.90
23801;DHT22;12081;48.614;10.226;2023-05-07T18:28:37;13.30;99.90
23801;DHT22;12081;48.614;10.226;2023-05-07T18:31:21;13.20;99.90
23801;DHT22;12081;48.614;10.226;2023-05-07T18:34:05;13.10;99.90
23801;DHT22;12081;48.614;10.226;2023-05-07T18:39:35;13.20;99.90
23801;DHT22;12081;48.614;10.226;2023-05-07T18:42:19;13.10;99.90
23801;DHT22;12081;48.614;10.226;2023-05-07T18:45:04;13.00;99.90
23801;DHT22;12081;48.614;10.226;2023-05-07T18:56:02;13.00;99.90
23801;DHT22;12081;48.614;10.226;2023-05-07T18:58:46;13.00;99.90
23801;DHT22;12081;48.614;10.226;2023-05-07T19:01:30;12.90;99.90
23801;DHT22;12081;48.614;10.226;2023-05-07T19:04:14;12.90;99.90
23801;DHT22;12081;48.614;10.226;2023-05-07T19:06:59;12.80;99.90
23801;DHT22;12081;48.614;10.226;2023-05-07T19:09:43;12.90;99.90
23801;DHT22;12081;48.614;10.226;2023-05-07T19:23:25;12.90;99.90
23801;DHT22;12081;48.614;10.226;2023-05-07T19:26:10;12.90;99.90
23801;DHT22;12081;48.614;10.226;2023-05-07T19:28:54;12.80;99.90
23801;DHT22;12081;48.614;10.226;2023-05-07T19:31:39;12.70;99.90
23801;DHT22;12081;48.614;10.226;2023-05-07T19:34:23;12.80;99.90
23801;DHT22;12081;48.614;10.226;2023-05-07T19:37:08;12.70;99.90
23801;DHT22;12081;48.614;10.226;2023-05-07T19:39:53;12.90;99.90
23801;DHT22;12081;48.614;10.226;2023-05-07T19:59:05;12.80;99.90
23801;DHT22;12081;48.614;10.226;2023-05-07T20:01:50;12.80;99.90
23801;DHT22;12081;48.614;10.226;2023-05-07T20:04:34;12.90;99.90
23801;DHT22;12081;48.614;10.226;2023-05-07T20:10:05;12.80;99.90
23801;DHT22;12081;48.614;10.226;2023-05-07T20:15:38;12.90;99.90
23801;DHT22;12081;48.614;10.226;2023-05-07T20:18:23;12.70;99.90
23801;DHT22;12081;48.614;10.226;2023-05-07T20:23:52;12.90;99.90
23801;DHT22;12081;48.614;10.226;2023-05-07T20:26:37;12.80;99.90
23801;DHT22;12081;48.614;10.226;2023-05-07T20:37:38;12.80;99.90
23801;DHT22;12081;48.614;10.226;2023-05-07T20:40:22;12.90;99.90
23801;DHT22;12081;48.614;10.226;2023-05-07T20:46:01;12.90;99.90
23801;DHT22;12081;48.614;10.226;2023-05-07T20:57:06;12.80;99.90
23801;DHT22;12081;48.614;10.226;2023-05-07T20:59:50;12.80;99.90
23801;DHT22;12081;48.614;10.226;2023-05-07T21:02:35;12.80;99.90
23801;DHT22;12081;48.614;10.226;2023-05-07T21:05:19;12.70;99.90
23801;DHT22;12081;48.614;10.226;2023-05-07T21:10:48;12.80;99.90
23801;DHT22;12081;48.614;10.226;2023-05-07T21:16:17;12.80;99.90
23801;DHT22;12081;48.614;10.226;2023-05-07T21:19:01;12.60;99.90
23801;DHT22;12081;48.614;10.226;2023-05-07T21:21:45;12.60;99.90
23801;DHT22;12081;48.614;10.226;2023-05-07T21:24:29;12.60;99.90
23801;DHT22;12081;48.614;10.226;2023-05-07T21:27:13;12.60;99.90
23801;DHT22;12081;48.614;10.226;2023-05-07T21:29:57;12.50;99.90
23801;DHT22;12081;48.614;10.226;2023-05-07T21:32:47;12.50;99.90
23801;DHT22;12081;48.614;10.226;2023-05-07T21:35:31;12.50;99.90
23801;DHT22;12081;48.614;10.226;2023-05-07T21:38:15;12.30;99.90
23801;DHT22;12081;48.614;10.226;2023-05-07T21:43:45;12.60;99.90
23801;DHT22;12081;48.614;10.226;2023-05-07T21:46:29;12.50;99.90
23801;DHT22;12081;48.614;10.226;2023-05-07T21:49:13;12.50;99.90
23801;DHT22;12081;48.614;10.226;2023-05-07T21:57:27;12.40;99.90
23801;DHT22;12081;48.614;10.226;2023-05-07T22:00:11;12.40;99.90
23801;DHT22;12081;48.614;10.226;2023-05-07T22:02:55;12.40;99.90
23801;DHT22;12081;48.614;10.226;2023-05-07T22:08:24;12.40;99.90
23801;DHT22;12081;48.614;10.226;2023-05-07T22:11:08;12.30;99.90
23801;DHT22;12081;48.614;10.226;2023-05-07T22:13:53;12.40;99.90
23801;DHT22;12081;48.614;10.226;2023-05-07T22:19:22;12.30;99.90
23801;DHT22;12081;48.614;10.226;2023-05-07T22:24:51;12.20;99.90
23801;DHT22;12081;48.614;10.226;2023-05-07T22:27:36;12.30;99.90
23801;DHT22;12081;48.614;10.226;2023-05-07T22:30:20;12.20;99.90
23801;DHT22;12081;48.614;10.226;2023-05-07T22:33:05;12.20;99.90
23801;DHT22;12081;48.614;10.226;2023-05-07T22:35:49;12.20;99.90
23801;DHT22;12081;48.614;10.226;2023-05-07T22:41:18;12.30;99.90
23801;DHT22;12081;48.614;10.226;2023-05-07T22:49:35;12.20;99.90
23801;DHT22;12081;48.614;10.226;2023-05-07T22:55:04;12.00;99.90
23801;DHT22;12081;48.614;10.226;2023-05-07T23:00:33;12.20;99.90
23801;DHT22;12081;48.614;10.226;2023-05-07T23:03:17;12.20;99.90
23801;DHT22;12081;48.614;10.226;2023-05-07T23:06:01;12.20;99.90
23801;DHT22;12081;48.614;10.226;2023-05-07T23:14:15;12.30;99.90
23801;DHT22;12081;48.614;10.226;2023-05-07T23:25:12;12.40;99.90
23801;DHT22;12081;48.614;10.226;2023-05-07T23:27:58;12.30;99.90
23801;DHT22;12081;48.614;10.226;2023-05-07T23:33:26;12.40;99.90
23801;DHT22;12081;48.614;10.226;2023-05-07T23:36:10;12.40;99.90
23801;DHT22;12081;48.614;10.226;2023-05-07T23:41:39;12.40;99.90
23801;DHT22;12081;48.614;10.226;2023-05-07T23:47:08;12.30;99.90
23801;DHT22;12081;48.614;10.226;2023-05-07T23:49:52;12.40;99.90
23801;DHT22;12081;48.614;10.226;2023-05-07T23:52:36;12.40;99.90
